createdAt,value
2023-02-15T00:01:40.460Z,17.80
2023-02-15T00:03:42.654Z,17.63
2023-02-15T00:05:44.856Z,17.25
2023-02-15T00:07:47.153Z,18.10
2023-02-15T00:09:50.158Z,19.10
2023-02-15T00:11:52.469Z,18.33
2023-02-15T00:13:54.706Z,17.73
2023-02-15T00:16:03.348Z,17.83
2023-02-15T00:18:05.626Z,18.25
2023-02-15T00:20:08.726Z,17.20
2023-02-15T00:22:10.894Z,18.00
2023-02-15T00:24:15.794Z,18.50
2023-02-15T00:26:17.994Z,17.67
2023-02-15T00:28:20.167Z,17.63
2023-02-15T00:30:22.355Z,17.85
2023-02-15T00:32:24.568Z,18.73
2023-02-15T00:34:28.602Z,18.35
2023-02-15T00:36:30.717Z,19.52
2023-02-15T00:38:33.255Z,18.83
2023-02-15T00:40:35.428Z,19.15
2023-02-15T00:42:37.676Z,17.85
2023-02-15T00:44:39.732Z,18.30
2023-02-15T00:46:42.164Z,17.58
2023-02-15T00:48:44.814Z,20.00
2023-02-15T00:50:48.343Z,19.40
2023-02-15T00:52:50.483Z,18.55
2023-02-15T00:54:52.558Z,18.92
2023-02-15T00:56:54.716Z,18.33
2023-02-15T00:58:56.956Z,18.88
2023-02-15T01:01:07.126Z,17.73
2023-02-15T01:03:09.992Z,18.35
2023-02-15T01:05:12.066Z,18.02
2023-02-15T01:07:14.187Z,18.20
2023-02-15T01:09:16.389Z,18.33
2023-02-15T01:11:23.650Z,19.05
2023-02-15T01:13:25.826Z,17.50
2023-02-15T01:15:28.060Z,18.50
2023-02-15T01:17:30.558Z,18.45
2023-02-15T01:19:32.641Z,18.80
2023-02-15T01:21:35.678Z,18.30
2023-02-15T01:23:38.409Z,18.83
2023-02-15T01:25:40.625Z,20.20
2023-02-15T01:27:42.952Z,18.70
2023-02-15T01:29:45.349Z,18.52
2023-02-15T01:31:47.804Z,18.48
2023-02-15T01:33:50.460Z,18.88
2023-02-15T01:35:59.251Z,18.35
2023-02-15T01:38:01.815Z,18.58
2023-02-15T01:40:06.801Z,18.55
2023-02-15T01:42:12.522Z,19.58
2023-02-15T01:44:20.843Z,20.55
2023-02-15T01:46:29.147Z,21.48
2023-02-15T01:48:31.299Z,22.13
2023-02-15T01:50:39.436Z,22.65
2023-02-15T01:52:50.030Z,22.85
2023-02-15T01:54:52.227Z,23.30
2023-02-15T01:56:59.338Z,23.75
2023-02-15T01:59:07.496Z,24.85
2023-02-15T02:01:10.302Z,23.55
2023-02-15T02:03:13.280Z,23.58
2023-02-15T02:05:15.178Z,24.50
2023-02-15T02:07:20.536Z,24.15
2023-02-15T02:09:22.524Z,23.23
2023-02-15T02:11:24.804Z,23.85
2023-02-15T02:13:27.132Z,24.08
2023-02-15T02:15:40.352Z,23.38
2023-02-15T02:17:43.095Z,23.20
2023-02-15T02:19:49.710Z,24.67
2023-02-15T02:21:57.982Z,23.45
2023-02-15T02:24:04.470Z,22.95
2023-02-15T02:26:08.094Z,24.85
2023-02-15T02:28:16.163Z,22.58
2023-02-15T02:30:21.810Z,21.75
2023-02-15T02:32:30.268Z,22.83
2023-02-15T02:34:44.202Z,23.55
2023-02-15T02:36:54.610Z,21.85
2023-02-15T02:39:05.650Z,22.02
2023-02-15T02:41:13.890Z,22.73
2023-02-15T02:43:22.727Z,21.40
2023-02-15T02:45:32.385Z,23.20
2023-02-15T02:47:41.245Z,24.17
2023-02-15T02:49:45.592Z,23.25
2023-02-15T02:51:47.541Z,22.48
2023-02-15T02:53:54.547Z,23.08
2023-02-15T02:56:04.562Z,22.83
2023-02-15T02:58:12.125Z,22.63
2023-02-15T03:00:16.911Z,22.50
2023-02-15T03:02:26.777Z,24.02
2023-02-15T03:04:34.388Z,24.65
2023-02-15T03:06:43.844Z,22.58
2023-02-15T03:08:51.869Z,24.55
2023-02-15T03:10:56.877Z,24.17
2023-02-15T03:12:58.948Z,23.48
2023-02-15T03:15:05.800Z,23.83
2023-02-15T03:17:09.130Z,24.10
2023-02-15T03:19:17.257Z,23.90
2023-02-15T03:21:23.331Z,25.45
2023-02-15T03:23:29.088Z,24.63
2023-02-15T03:25:37.149Z,25.48
2023-02-15T03:27:43.779Z,24.42
2023-02-15T03:29:50.193Z,25.67
2023-02-15T03:31:58.248Z,27.80
2023-02-15T03:34:05.300Z,25.55
2023-02-15T03:36:11.843Z,24.42
2023-02-15T03:38:18.565Z,25.92
2023-02-15T03:40:30.946Z,25.10
2023-02-15T03:42:39.593Z,26.55
2023-02-15T03:44:51.117Z,25.58
2023-02-15T03:47:01.961Z,26.13
2023-02-15T03:51:15.063Z,27.25
2023-02-15T03:53:22.031Z,27.50
2023-02-15T03:55:24.687Z,29.15
2023-02-15T03:57:32.969Z,29.20
2023-02-15T03:59:38.128Z,29.38
2023-02-15T04:01:51.951Z,29.17
2023-02-15T04:04:02.226Z,29.30
2023-02-15T04:06:04.727Z,29.83
2023-02-15T04:08:06.758Z,32.65
2023-02-15T04:10:12.030Z,28.65
2023-02-15T04:12:14.207Z,29.40
2023-02-15T04:14:19.274Z,29.85
2023-02-15T04:16:21.239Z,31.70
2023-02-15T04:18:27.363Z,32.20
2023-02-15T04:20:32.561Z,31.38
2023-02-15T04:22:37.712Z,32.63
2023-02-15T04:24:42.743Z,33.75
2023-02-15T04:26:44.813Z,32.30
2023-02-15T04:28:46.698Z,33.30
2023-02-15T04:30:48.741Z,33.90
2023-02-15T04:32:50.657Z,34.60
2023-02-15T04:34:52.724Z,34.08
2023-02-15T04:36:54.677Z,34.58
2023-02-15T04:38:56.725Z,34.38
2023-02-15T04:40:58.957Z,35.25
2023-02-15T04:43:00.897Z,33.55
2023-02-15T04:45:03.416Z,34.17
2023-02-15T04:47:05.600Z,36.22
2023-02-15T04:49:07.663Z,34.38
2023-02-15T04:51:10.491Z,33.25
2023-02-15T04:53:12.740Z,34.30
2023-02-15T04:55:15.425Z,35.67
2023-02-15T04:57:17.437Z,35.33
2023-02-15T04:59:19.461Z,34.90
2023-02-15T05:01:21.492Z,35.95
2023-02-15T05:03:23.828Z,35.42
2023-02-15T05:05:25.840Z,35.47
2023-02-15T05:07:27.779Z,35.40
2023-02-15T05:09:29.852Z,34.97
2023-02-15T05:11:31.801Z,34.28
2023-02-15T05:13:33.876Z,35.88
2023-02-15T05:15:35.831Z,37.05
2023-02-15T05:17:37.952Z,37.47
2023-02-15T05:19:40.236Z,35.60
2023-02-15T05:21:42.959Z,36.42
2023-02-15T05:23:45.077Z,34.95
2023-02-15T05:25:53.023Z,35.47
2023-02-15T05:27:58.229Z,35.75
2023-02-15T05:30:00.370Z,35.15
2023-02-15T05:32:03.761Z,34.95
2023-02-15T05:34:06.004Z,34.45
2023-02-15T05:36:08.936Z,36.42
2023-02-15T05:38:11.144Z,36.13
2023-02-15T05:40:13.507Z,36.97
2023-02-15T05:42:15.632Z,37.17
2023-02-15T05:44:18.001Z,35.78
2023-02-15T05:46:20.289Z,35.33
2023-02-15T05:48:24.585Z,36.28
2023-02-15T05:50:27.632Z,37.72
2023-02-15T05:52:29.603Z,36.67
2023-02-15T05:54:31.761Z,36.95
2023-02-15T05:56:33.645Z,34.58
2023-02-15T05:58:38.723Z,36.75
2023-02-15T06:00:40.722Z,36.25
2023-02-15T06:02:42.813Z,36.03
2023-02-15T06:04:45.170Z,37.78
2023-02-15T06:06:47.528Z,36.00
2023-02-15T06:08:49.511Z,36.38
2023-02-15T06:10:51.447Z,36.97
2023-02-15T06:12:53.590Z,36.42
2023-02-15T06:14:55.688Z,35.05
2023-02-15T06:16:57.712Z,36.35
2023-02-15T06:19:00.392Z,37.67
2023-02-15T06:21:02.427Z,34.95
2023-02-15T06:23:04.603Z,37.08
2023-02-15T06:25:07.039Z,35.10
2023-02-15T06:27:09.403Z,37.13
2023-02-15T06:29:11.385Z,37.05
2023-02-15T06:31:13.444Z,36.05
2023-02-15T06:33:15.486Z,35.33
2023-02-15T06:35:17.723Z,36.97
2023-02-15T06:37:19.791Z,36.97
2023-02-15T06:39:21.751Z,35.90
2023-02-15T06:41:24.298Z,36.35
2023-02-15T06:43:26.403Z,36.22
2023-02-15T06:45:28.493Z,35.58
2023-02-15T06:47:30.531Z,36.75
2023-02-15T06:49:32.487Z,36.50
2023-02-15T06:51:35.234Z,36.13
2023-02-15T06:53:37.283Z,36.60
2023-02-15T06:55:39.360Z,34.42
2023-02-15T06:57:41.666Z,37.05
2023-02-15T06:59:43.678Z,36.05
2023-02-15T07:01:45.716Z,36.13
2023-02-15T07:03:48.055Z,36.53
2023-02-15T07:05:50.359Z,35.13
2023-02-15T07:07:52.398Z,37.05
2023-02-15T07:09:54.449Z,36.55
2023-02-15T07:11:59.493Z,35.60
2023-02-15T07:14:01.411Z,36.20
2023-02-15T07:16:03.880Z,35.55
2023-02-15T07:18:06.338Z,34.78
2023-02-15T07:20:11.785Z,35.25
2023-02-15T07:22:13.863Z,35.53
2023-02-15T07:24:15.887Z,36.03
2023-02-15T07:26:17.847Z,35.20
2023-02-15T07:28:20.166Z,36.08
2023-02-15T07:30:22.288Z,36.28
2023-02-15T07:32:24.453Z,35.58
2023-02-15T07:34:26.480Z,34.17
2023-02-15T07:36:28.513Z,35.92
2023-02-15T07:38:34.226Z,36.90
2023-02-15T07:40:36.250Z,36.58
2023-02-15T07:42:38.303Z,36.20
2023-02-15T07:44:40.328Z,37.45
2023-02-15T07:46:42.809Z,36.83
2023-02-15T07:48:45.714Z,37.50
2023-02-15T07:50:47.892Z,36.97
2023-02-15T07:52:50.090Z,36.42
2023-02-15T07:54:52.183Z,34.25
2023-02-15T07:56:54.372Z,35.67
2023-02-15T07:58:58.968Z,35.40
2023-02-15T08:01:05.270Z,36.05
2023-02-15T08:03:10.844Z,37.17
2023-02-15T08:05:13.396Z,35.33
2023-02-15T08:07:15.462Z,35.55
2023-02-15T08:09:17.810Z,34.30
2023-02-15T08:11:27.558Z,35.42
2023-02-15T08:13:29.604Z,35.28
2023-02-15T08:15:32.776Z,35.53
2023-02-15T08:17:38.776Z,34.75
2023-02-15T08:19:40.998Z,35.63
2023-02-15T08:21:45.586Z,36.25
2023-02-15T08:23:48.379Z,34.63
2023-02-15T08:25:50.852Z,33.10
2023-02-15T08:27:53.417Z,35.50
2023-02-15T08:29:56.090Z,34.90
2023-02-15T08:32:04.127Z,33.30
2023-02-15T08:34:07.135Z,35.03
2023-02-15T08:36:12.049Z,33.78
2023-02-15T08:38:14.565Z,32.28
2023-02-15T08:40:17.500Z,33.35
2023-02-15T08:42:21.384Z,32.50
2023-02-15T08:44:23.732Z,32.17
2023-02-15T08:46:29.248Z,32.47
2023-02-15T08:48:31.524Z,31.80
2023-02-15T08:50:33.809Z,30.90
2023-02-15T08:52:35.963Z,32.60
2023-02-15T08:54:38.626Z,30.48
2023-02-15T08:56:42.848Z,30.83
2023-02-15T08:58:45.240Z,28.92
2023-02-15T09:00:47.669Z,30.38
2023-02-15T09:02:50.295Z,31.65
2023-02-15T09:04:54.221Z,31.45
2023-02-15T09:06:56.843Z,28.15
2023-02-15T09:08:59.249Z,29.27
2023-02-15T09:11:06.222Z,27.85
2023-02-15T09:13:08.888Z,27.95
2023-02-15T09:15:12.361Z,29.35
2023-02-15T09:17:16.123Z,28.73
2023-02-15T09:19:20.168Z,28.30
2023-02-15T09:21:25.189Z,28.35
2023-02-15T09:23:28.993Z,29.45
2023-02-15T09:25:31.317Z,26.38
2023-02-15T09:27:33.465Z,27.30
2023-02-15T09:29:35.621Z,28.00
2023-02-15T09:31:45.583Z,26.27
2023-02-15T09:33:49.301Z,26.73
2023-02-15T09:35:51.371Z,26.15
2023-02-15T09:37:53.581Z,27.08
2023-02-15T09:39:56.020Z,28.60
2023-02-15T09:42:04.289Z,27.73
2023-02-15T09:44:07.204Z,25.10
2023-02-15T09:46:14.140Z,25.60
2023-02-15T09:48:20.053Z,25.08
2023-02-15T09:50:25.963Z,24.30
2023-02-15T09:52:32.839Z,24.58
2023-02-15T09:54:38.315Z,23.42
2023-02-15T09:56:45.848Z,24.63
2023-02-15T09:58:52.041Z,22.40
2023-02-15T10:00:57.608Z,23.92
2023-02-15T10:03:13.173Z,23.60
2023-02-15T10:05:22.056Z,22.65
2023-02-15T10:07:26.027Z,22.83
2023-02-15T10:09:35.549Z,22.48
2023-02-15T10:11:50.444Z,21.63
2023-02-15T10:14:00.463Z,20.85
2023-02-15T10:16:06.486Z,21.65
2023-02-15T10:18:15.501Z,21.02
2023-02-15T10:20:21.204Z,21.65
2023-02-15T10:22:29.727Z,20.30
2023-02-15T10:24:40.478Z,21.70
2023-02-15T10:26:47.269Z,19.77
2023-02-15T10:28:53.215Z,18.55
2023-02-15T10:31:08.535Z,19.30
2023-02-15T10:33:21.949Z,19.60
2023-02-15T10:35:37.332Z,19.17
2023-02-15T10:37:46.033Z,17.73
2023-02-15T10:39:54.513Z,18.83
2023-02-15T10:42:07.424Z,18.58
2023-02-15T10:44:21.173Z,18.30
2023-02-15T10:46:32.842Z,18.10
2023-02-15T10:48:39.231Z,17.67
2023-02-15T10:50:47.784Z,17.08
2023-02-15T10:52:58.272Z,18.77
2023-02-15T10:55:06.546Z,16.52
2023-02-15T10:57:14.840Z,17.73
2023-02-15T10:59:26.696Z,17.77
2023-02-15T11:01:42.446Z,17.05
2023-02-15T11:03:48.349Z,16.65
2023-02-15T11:06:02.937Z,16.40
2023-02-15T11:08:08.450Z,17.23
2023-02-15T11:10:17.368Z,15.90
2023-02-15T11:12:28.273Z,14.33
2023-02-15T11:14:33.869Z,16.30
2023-02-15T11:16:42.303Z,16.52
2023-02-15T11:18:49.834Z,15.00
2023-02-15T11:20:53.181Z,14.55
2023-02-15T11:22:56.128Z,13.98
2023-02-15T11:25:00.456Z,15.02
2023-02-15T11:27:07.537Z,13.82
2023-02-15T11:29:20.061Z,14.63
2023-02-15T11:31:26.234Z,14.95
2023-02-15T11:33:34.846Z,14.73
2023-02-15T11:35:43.737Z,15.82
2023-02-15T11:37:49.313Z,15.30
2023-02-15T11:39:55.827Z,14.20
2023-02-15T11:42:03.035Z,14.88
2023-02-15T11:44:13.479Z,14.27
2023-02-15T11:46:16.206Z,14.88
2023-02-15T11:48:19.334Z,13.88
2023-02-15T11:50:25.501Z,13.10
2023-02-15T11:52:27.815Z,13.52
2023-02-15T11:54:33.728Z,14.13
2023-02-15T11:56:36.214Z,13.85
2023-02-15T11:58:45.897Z,13.05
2023-02-15T12:00:51.653Z,13.50
2023-02-15T12:02:56.425Z,13.63
2023-02-15T12:05:05.406Z,12.93
2023-02-15T12:07:16.339Z,13.38
2023-02-15T12:09:30.237Z,14.05
2023-02-15T12:11:37.974Z,14.35
2023-02-15T12:13:51.089Z,13.93
2023-02-15T12:15:56.695Z,14.60
2023-02-15T12:17:58.904Z,13.95
2023-02-15T12:20:06.208Z,14.60
2023-02-15T12:22:23.115Z,13.43
2023-02-15T12:24:29.649Z,14.52
2023-02-15T12:26:35.468Z,12.85
2023-02-15T12:28:42.934Z,14.35
2023-02-15T12:30:45.655Z,11.65
2023-02-15T12:32:52.794Z,12.30
2023-02-15T12:35:03.335Z,11.80
2023-02-15T12:37:16.679Z,11.70
2023-02-15T12:39:23.927Z,11.27
2023-02-15T12:41:27.653Z,11.20
2023-02-15T12:43:34.459Z,10.93
2023-02-15T12:45:39.254Z,9.70
2023-02-15T12:47:41.602Z,9.98
2023-02-15T12:49:48.829Z,9.80
2023-02-15T12:51:54.210Z,9.65
2023-02-15T12:53:56.795Z,9.13
2023-02-15T12:56:02.464Z,9.27
2023-02-15T12:58:08.374Z,9.98
2023-02-15T13:00:16.820Z,8.95
2023-02-15T13:02:24.589Z,8.48
2023-02-15T13:04:31.106Z,9.02
2023-02-15T13:06:36.178Z,7.00
2023-02-15T13:08:49.092Z,7.30
2023-02-15T13:10:57.479Z,7.40
2023-02-15T13:13:00.298Z,6.90
2023-02-15T13:15:04.499Z,7.10
2023-02-15T13:17:08.929Z,6.65
2023-02-15T13:19:17.968Z,6.13
2023-02-15T13:21:26.208Z,7.43
2023-02-15T13:23:30.538Z,7.07
2023-02-15T13:25:45.065Z,7.65
2023-02-15T13:27:50.253Z,6.50
2023-02-15T13:29:59.863Z,6.70
2023-02-15T13:32:11.118Z,6.90
2023-02-15T13:34:22.464Z,7.43
2023-02-15T13:36:28.539Z,6.82
2023-02-15T13:38:34.475Z,5.93
2023-02-15T13:40:41.446Z,6.00
2023-02-15T13:42:54.054Z,5.78
2023-02-15T13:45:00.047Z,6.47
2023-02-15T13:47:11.323Z,6.85
2023-02-15T13:49:20.357Z,5.72
2023-02-15T13:51:28.815Z,5.82
2023-02-15T13:53:37.461Z,6.40
2023-02-15T13:55:43.339Z,6.10
2023-02-15T13:57:51.980Z,5.60
2023-02-15T14:00:00.453Z,5.93
2023-02-15T14:02:25.821Z,5.68
2023-02-15T14:04:32.361Z,6.47
2023-02-15T14:06:38.250Z,5.97
2023-02-15T14:08:49.045Z,5.72
2023-02-15T14:13:07.418Z,5.90
2023-02-15T14:15:12.663Z,5.60
2023-02-15T14:17:22.843Z,6.30
2023-02-15T14:19:36.816Z,4.75
2023-02-15T14:21:45.437Z,4.38
2023-02-15T14:24:01.118Z,4.65
2023-02-15T14:26:13.138Z,4.53
2023-02-15T14:28:23.419Z,4.18
2023-02-15T14:30:31.008Z,4.55
2023-02-15T14:32:40.690Z,4.38
2023-02-15T14:34:47.845Z,4.57
2023-02-15T14:36:53.167Z,3.72
2023-02-15T14:39:01.978Z,4.57
2023-02-15T14:41:10.615Z,4.20
2023-02-15T14:43:23.740Z,4.15
2023-02-15T14:45:33.784Z,4.00
2023-02-15T14:47:41.199Z,3.60
2023-02-15T14:49:44.066Z,3.78
2023-02-15T14:51:49.233Z,4.13
2023-02-15T14:53:51.976Z,3.70
2023-02-15T14:56:00.753Z,3.55
2023-02-15T14:58:03.248Z,3.97
2023-02-15T15:00:26.943Z,3.55
2023-02-15T15:02:44.139Z,3.75
2023-02-15T15:04:58.937Z,3.90
2023-02-15T15:07:08.135Z,3.45
2023-02-15T15:09:15.086Z,3.78
2023-02-15T15:11:43.837Z,4.65
2023-02-15T15:13:52.512Z,3.55
2023-02-15T15:15:54.936Z,3.25
2023-02-15T15:18:00.643Z,3.50
2023-02-15T15:20:06.172Z,4.05
2023-02-15T15:22:22.441Z,3.33
2023-02-15T15:24:31.134Z,4.20
2023-02-15T15:26:38.019Z,4.18
2023-02-15T15:28:41.002Z,3.90
2023-02-15T15:30:44.187Z,3.63
2023-02-15T15:32:52.979Z,3.50
2023-02-15T15:35:13.804Z,3.80
2023-02-15T15:39:27.634Z,3.40
2023-02-15T15:41:33.702Z,3.40
2023-02-15T15:43:42.652Z,3.83
2023-02-15T15:45:50.881Z,2.95
2023-02-15T15:48:06.536Z,3.72
2023-02-15T15:50:14.553Z,4.00
2023-02-15T15:52:20.170Z,4.05
2023-02-15T15:54:25.869Z,3.65
2023-02-15T15:56:32.557Z,4.07
2023-02-15T15:58:36.120Z,3.33
2023-02-15T16:00:46.193Z,3.58
2023-02-15T16:02:52.555Z,3.30
2023-02-15T16:04:55.448Z,3.45
2023-02-15T16:06:59.509Z,3.72
2023-02-15T16:09:10.088Z,3.42
2023-02-15T16:11:21.756Z,3.92
2023-02-15T16:13:24.650Z,4.05
2023-02-15T16:15:32.894Z,3.30
2023-02-15T16:17:35.459Z,4.05
2023-02-15T16:19:42.826Z,3.50
2023-02-15T16:21:49.682Z,3.88
2023-02-15T16:23:58.957Z,4.57
2023-02-15T16:26:05.850Z,4.32
2023-02-15T16:28:12.550Z,3.70
2023-02-15T16:30:21.117Z,3.70
2023-02-15T16:32:27.144Z,4.07
2023-02-15T16:34:33.724Z,3.85
2023-02-15T16:36:36.049Z,4.47
2023-02-15T16:38:44.803Z,3.60
2023-02-15T16:40:55.308Z,4.30
2023-02-15T16:43:02.892Z,3.70
2023-02-15T16:45:11.033Z,4.28
2023-02-15T16:47:21.245Z,4.05
2023-02-15T16:49:27.366Z,4.43
2023-02-15T16:51:33.072Z,4.70
2023-02-15T16:53:35.303Z,4.97
2023-02-15T16:55:42.506Z,5.15
2023-02-15T16:57:45.468Z,4.15
2023-02-15T16:59:51.586Z,4.40
2023-02-15T17:01:55.024Z,4.53
2023-02-15T17:04:14.182Z,4.68
2023-02-15T17:06:21.614Z,4.80
2023-02-15T17:08:28.888Z,4.32
2023-02-15T17:10:37.719Z,4.82
2023-02-15T17:12:46.491Z,4.07
2023-02-15T17:14:56.462Z,3.85
2023-02-15T17:17:05.377Z,4.75
2023-02-15T17:19:16.126Z,4.32
2023-02-15T17:23:29.956Z,5.05
2023-02-15T17:25:38.827Z,5.50
2023-02-15T17:27:42.197Z,6.22
2023-02-15T17:29:53.624Z,5.88
2023-02-15T17:35:18.324Z,5.95
2023-02-15T17:37:26.521Z,5.75
2023-02-15T17:39:28.861Z,5.50
2023-02-15T17:41:35.444Z,5.93
2023-02-15T17:43:38.020Z,5.78
2023-02-15T17:45:48.491Z,5.30
2023-02-15T17:47:51.467Z,5.28
2023-02-15T17:49:54.963Z,5.03
2023-02-15T17:51:59.124Z,4.97
2023-02-15T17:54:04.739Z,10.20
2023-02-15T17:56:10.726Z,5.70
2023-02-15T17:58:16.085Z,7.70
2023-02-15T18:00:22.552Z,6.95
2023-02-15T18:02:29.053Z,6.20
2023-02-15T18:04:37.854Z,6.47
2023-02-15T18:06:46.405Z,4.50
2023-02-15T18:08:52.469Z,4.68
2023-02-15T18:10:58.795Z,4.50
2023-02-15T18:13:01.421Z,5.07
2023-02-15T18:15:05.182Z,5.18
2023-02-15T18:17:15.350Z,4.30
2023-02-15T18:19:23.887Z,5.35
2023-02-15T18:21:27.041Z,5.63
2023-02-15T18:23:29.663Z,5.00
2023-02-15T18:25:32.626Z,4.57
2023-02-15T18:27:35.353Z,4.68
2023-02-15T18:29:38.089Z,4.32
2023-02-15T18:31:41.007Z,5.60
2023-02-15T18:33:48.471Z,5.45
2023-02-15T18:35:51.698Z,6.05
2023-02-15T18:37:54.832Z,4.70
2023-02-15T18:39:57.330Z,5.22
2023-02-15T18:41:59.858Z,4.35
2023-02-15T18:44:02.513Z,4.13
2023-02-15T18:46:05.453Z,5.00
2023-02-15T18:48:10.578Z,5.95
2023-02-15T18:50:16.405Z,5.60
2023-02-15T18:52:24.865Z,5.38
2023-02-15T18:54:27.832Z,5.95
2023-02-15T18:56:31.657Z,5.25
2023-02-15T18:58:34.297Z,5.15
2023-02-15T19:00:37.341Z,5.18
2023-02-15T19:02:39.965Z,6.78
2023-02-15T19:04:43.273Z,5.70
2023-02-15T19:06:51.045Z,6.38
2023-02-15T19:08:55.107Z,6.28
2023-02-15T19:11:00.144Z,5.78
2023-02-15T19:13:04.708Z,6.13
2023-02-15T19:15:16.398Z,5.82
2023-02-15T19:17:24.333Z,6.75
2023-02-15T19:19:28.933Z,6.88
2023-02-15T19:21:33.984Z,7.10
2023-02-15T19:23:37.453Z,6.60
2023-02-15T19:25:42.214Z,7.78
2023-02-15T19:27:46.981Z,7.05
2023-02-15T19:29:50.955Z,6.78
2023-02-15T19:31:54.303Z,7.85
2023-02-15T19:33:58.239Z,7.97
2023-02-15T19:36:02.476Z,8.18
2023-02-15T19:38:12.592Z,7.85
2023-02-15T19:40:22.713Z,8.00
2023-02-15T19:42:26.145Z,7.95
2023-02-15T19:44:29.651Z,8.40
2023-02-15T19:46:35.281Z,7.55
2023-02-15T19:48:39.994Z,8.50
2023-02-15T19:50:44.697Z,8.48
2023-02-15T19:52:48.739Z,8.27
2023-02-15T19:54:58.986Z,8.98
2023-02-15T19:57:02.344Z,7.85
2023-02-15T19:59:06.583Z,9.00
2023-02-15T20:01:11.814Z,9.05
2023-02-15T20:03:16.304Z,8.80
2023-02-15T20:05:22.037Z,9.15
2023-02-15T20:07:29.111Z,9.23
2023-02-15T20:09:39.211Z,8.77
2023-02-15T20:11:44.280Z,9.20
2023-02-15T20:13:49.895Z,10.20
2023-02-15T20:15:55.430Z,9.23
2023-02-15T20:18:01.002Z,9.70
2023-02-15T20:20:05.655Z,10.25
2023-02-15T20:22:21.337Z,9.57
2023-02-15T20:24:28.975Z,9.52
2023-02-15T20:26:34.109Z,10.18
2023-02-15T20:28:38.713Z,10.07
2023-02-15T20:30:42.706Z,11.20
2023-02-15T20:32:47.385Z,11.05
2023-02-15T20:34:51.107Z,10.75
2023-02-15T20:36:55.041Z,11.13
2023-02-15T20:39:02.687Z,10.27
2023-02-15T20:41:10.244Z,10.40
2023-02-15T20:43:17.860Z,10.75
2023-02-15T20:45:25.087Z,11.38
2023-02-15T20:47:29.674Z,11.00
2023-02-15T20:49:35.487Z,11.00
2023-02-15T20:51:42.697Z,10.43
2023-02-15T20:53:48.577Z,11.80
2023-02-15T20:55:53.348Z,11.70
2023-02-15T20:57:58.071Z,12.02
2023-02-15T21:00:03.268Z,11.25
2023-02-15T21:02:16.887Z,11.63
2023-02-15T21:04:24.643Z,11.60
2023-02-15T21:06:29.798Z,12.63
2023-02-15T21:08:36.685Z,12.05
2023-02-15T21:10:45.884Z,11.80
2023-02-15T21:12:51.661Z,11.50
2023-02-15T21:14:55.742Z,11.23
2023-02-15T21:17:01.631Z,13.15
2023-02-15T21:19:14.986Z,12.50
2023-02-15T21:21:24.296Z,11.63
2023-02-15T21:23:34.539Z,11.90
2023-02-15T21:25:39.403Z,11.93
2023-02-15T21:27:44.070Z,11.68
2023-02-15T21:29:47.257Z,12.18
2023-02-15T21:31:51.415Z,12.07
2023-02-15T21:33:55.092Z,12.43
2023-02-15T21:35:59.472Z,12.10
2023-02-15T21:38:03.681Z,12.02
2023-02-15T21:40:20.015Z,13.25
2023-02-15T21:42:27.300Z,11.70
2023-02-15T21:44:34.809Z,11.65
2023-02-15T21:46:42.138Z,11.77
2023-02-15T21:48:46.619Z,12.30
2023-02-15T21:50:54.960Z,12.38
2023-02-15T21:52:59.680Z,12.98
2023-02-15T21:55:03.078Z,13.02
2023-02-15T21:57:06.361Z,12.02
2023-02-15T21:59:12.717Z,13.07
2023-02-15T22:01:20.048Z,13.15
2023-02-15T22:03:28.807Z,13.52
2023-02-15T22:05:34.421Z,13.40
2023-02-15T22:07:37.296Z,13.25
2023-02-15T22:09:40.102Z,12.27
2023-02-15T22:11:43.530Z,13.48
2023-02-15T22:13:47.685Z,14.18
2023-02-15T22:15:50.465Z,13.73
2023-02-15T22:17:54.146Z,14.05
2023-02-15T22:19:58.209Z,13.63
2023-02-15T22:22:01.364Z,13.65
2023-02-15T22:24:04.694Z,12.70
2023-02-15T22:26:12.836Z,14.48
2023-02-15T22:28:17.117Z,14.38
2023-02-15T22:30:23.861Z,14.15
2023-02-15T22:32:27.477Z,14.00
2023-02-15T22:34:32.675Z,12.70
2023-02-15T22:36:35.142Z,15.45
2023-02-15T22:38:37.638Z,14.65
2023-02-15T22:40:40.537Z,14.27
2023-02-15T22:42:47.274Z,14.35
2023-02-15T22:44:49.832Z,13.50
2023-02-15T22:46:53.091Z,15.13
2023-02-15T22:48:55.441Z,14.95
2023-02-15T22:50:57.892Z,14.38
2023-02-15T22:53:02.204Z,15.05
2023-02-15T22:55:04.451Z,14.50
2023-02-15T22:57:14.853Z,15.52
2023-02-15T22:59:22.180Z,15.98
2023-02-15T23:01:30.128Z,15.27
2023-02-15T23:03:33.760Z,15.48
2023-02-15T23:05:35.985Z,14.55
2023-02-15T23:07:38.173Z,14.82
2023-02-15T23:09:40.347Z,13.60
2023-02-15T23:11:43.685Z,13.48
2023-02-15T23:13:50.083Z,16.20
2023-02-15T23:15:56.113Z,15.23
2023-02-15T23:18:13.260Z,15.57
2023-02-15T23:20:15.837Z,15.75
2023-02-15T23:22:20.735Z,14.45
2023-02-15T23:24:27.798Z,11.95
2023-02-15T23:26:31.913Z,11.50
2023-02-15T23:28:37.014Z,8.95
2023-02-15T23:30:39.232Z,9.02
2023-02-15T23:32:41.329Z,8.27
2023-02-15T23:34:43.767Z,7.90
2023-02-15T23:36:45.920Z,6.82
2023-02-15T23:38:48.026Z,5.30
2023-02-15T23:40:57.006Z,4.88
2023-02-15T23:42:59.130Z,5.07
2023-02-15T23:45:02.563Z,5.90
2023-02-15T23:47:05.328Z,4.72
2023-02-15T23:49:15.238Z,5.40
2023-02-15T23:51:18.524Z,5.23
2023-02-15T23:53:20.531Z,4.88
2023-02-15T23:55:26.393Z,4.70
2023-02-15T23:57:28.570Z,4.35
2023-02-15T23:59:32.417Z,4.30
